Time;durP1;ratioP1;P1;durP2;ratioP2;P2;SDS_P1;SDS_P2;PMS_P1;PMS_P2;Temp;Humidity;BMP_temperature;BMP_pressure;BME280_temperature;BME280_humidity;BME280_pressure;Samples;Min_cycle;Max_cycle;Signal;HPM_P1;HPM_P2
2021/03/14 00:00:42;;;;;;;15.20;4.35;;;9.60;66.00;;;;;;5085280;28;20444;-80
2021/03/14 00:03:10;;;;;;;19.08;5.05;;;9.60;66.00;;;;;;5084405;28;20036;-78
2021/03/14 00:05:38;;;;;;;18.95;4.97;;;9.60;66.00;;;;;;5063980;28;20040;-78
2021/03/14 00:08:06;;;;;;;14.43;4.50;;;9.60;66.00;;;;;;5082159;28;20593;-81
2021/03/14 00:10:32;;;;;;;13.52;4.68;;;9.60;66.10;;;;;;5068195;28;20061;-79
2021/03/14 00:12:59;;;;;;;20.85;5.45;;;9.50;65.90;;;;;;5084900;28;20534;-81
2021/03/14 00:15:25;;;;;;;15.88;5.20;;;9.50;65.90;;;;;;5085319;28;20040;-80
2021/03/14 00:17:51;;;;;;;15.68;5.97;;;9.50;65.90;;;;;;5084157;28;20042;-80
2021/03/14 00:20:18;;;;;;;13.77;4.95;;;9.50;65.90;;;;;;5064353;28;20025;-81
2021/03/14 00:22:45;;;;;;;13.93;5.03;;;9.50;65.90;;;;;;5081581;28;20043;-81
2021/03/14 00:25:12;;;;;;;16.13;4.68;;;9.50;66.00;;;;;;5076182;28;20459;-77
2021/03/14 00:27:38;;;;;;;15.00;5.22;;;9.50;66.00;;;;;;5067567;28;20112;-79
2021/03/14 00:30:06;;;;;;;15.50;5.13;;;9.50;66.00;;;;;;5084393;28;20426;-82
2021/03/14 00:32:33;;;;;;;20.13;4.90;;;9.50;66.00;;;;;;5068246;28;20425;-82
2021/03/14 00:34:59;;;;;;;13.20;4.60;;;9.50;66.00;;;;;;5085281;28;20032;-81
2021/03/14 00:37:25;;;;;;;14.13;4.82;;;9.50;66.00;;;;;;5068241;28;20044;-80
2021/03/14 00:39:51;;;;;;;15.55;4.45;;;9.50;66.00;;;;;;5084498;28;20027;-78
2021/03/14 00:42:17;;;;;;;13.35;5.05;;;9.50;66.10;;;;;;5084754;28;20139;-78
2021/03/14 00:44:43;;;;;;;21.65;5.80;;;9.50;66.00;;;;;;5078592;28;20069;-81
2021/03/14 00:47:13;;;;;;;12.20;4.57;;;9.50;66.10;;;;;;5065053;28;20112;-80
2021/03/14 00:49:39;;;;;;;15.18;5.03;;;9.50;66.10;;;;;;5058472;28;20115;-81
2021/03/14 00:52:05;;;;;;;10.23;3.83;;;9.50;66.10;;;;;;5065103;28;20149;-82
2021/03/14 00:54:35;;;;;;;14.40;4.68;;;9.50;66.10;;;;;;5065010;28;20040;-83
2021/03/14 00:57:01;;;;;;;15.07;4.43;;;9.50;66.10;;;;;;5064160;28;20527;-79
2021/03/14 00:59:27;;;;;;;13.50;5.25;;;9.50;66.10;;;;;;5083670;28;20313;-79
2021/03/14 01:01:53;;;;;;;12.55;4.68;;;9.50;66.10;;;;;;5084174;28;20135;-79
2021/03/14 01:04:20;;;;;;;11.00;4.97;;;9.50;66.10;;;;;;5067774;28;20042;-80
2021/03/14 01:06:46;;;;;;;17.02;4.78;;;9.50;66.10;;;;;;5084161;28;20570;-79
2021/03/14 01:09:12;;;;;;;12.55;3.90;;;9.50;66.10;;;;;;5084444;28;20478;-81
2021/03/14 01:11:38;;;;;;;13.95;4.50;;;9.50;66.10;;;;;;5085101;28;20031;-77
2021/03/14 01:14:17;;;;;;;19.67;4.68;;;9.50;66.10;;;;;;5072791;28;20047;-79
2021/03/14 01:16:56;;;;;;;10.25;4.35;;;9.50;66.10;;;;;;5072746;28;20182;-80
2021/03/14 01:19:24;;;;;;;12.80;5.13;;;9.50;66.10;;;;;;5071767;28;20122;-82
2021/03/14 01:21:50;;;;;;;12.45;5.22;;;9.50;66.10;;;;;;5070740;28;20052;-77
2021/03/14 01:24:17;;;;;;;14.02;4.53;;;9.50;66.10;;;;;;5071547;28;20127;-81
2021/03/14 01:26:43;;;;;;;14.85;5.47;;;9.50;66.20;;;;;;5089653;28;20036;-81
2021/03/14 01:29:09;;;;;;;17.08;4.00;;;9.50;66.20;;;;;;5067972;28;20028;-82
2021/03/14 01:31:35;;;;;;;13.80;4.43;;;9.50;66.20;;;;;;5069354;28;20350;-79
2021/03/14 01:34:00;;;;;;;15.00;4.68;;;9.40;66.00;;;;;;5049852;28;20032;-81
2021/03/14 01:36:27;;;;;;;13.93;5.00;;;9.50;66.20;;;;;;5067967;28;20122;-80
2021/03/14 01:38:52;;;;;;;16.45;4.93;;;9.50;66.20;;;;;;5075293;28;20517;-84
2021/03/14 01:41:18;;;;;;;13.65;5.22;;;9.40;66.10;;;;;;5072409;28;20040;-84
2021/03/14 01:43:44;;;;;;;11.73;5.13;;;9.40;66.10;;;;;;5089061;28;20032;-83
2021/03/14 01:46:11;;;;;;;19.02;4.32;;;9.40;66.10;;;;;;5071723;28;20032;-83
2021/03/14 01:48:37;;;;;;;15.43;4.50;;;9.40;66.10;;;;;;5090053;28;20035;-81
2021/03/14 01:51:05;;;;;;;13.05;4.38;;;9.40;66.10;;;;;;5087694;28;20020;-81
2021/03/14 01:53:32;;;;;;;13.98;4.80;;;9.40;66.10;;;;;;5087003;28;20028;-81
2021/03/14 01:55:59;;;;;;;22.70;5.03;;;9.40;66.10;;;;;;5066725;28;20087;-81
2021/03/14 01:58:26;;;;;;;14.40;5.07;;;9.40;66.10;;;;;;5087710;28;20040;-80
2021/03/14 02:00:53;;;;;;;14.35;5.85;;;9.40;66.10;;;;;;5088636;28;20032;-82
2021/03/14 02:03:20;;;;;;;15.10;4.63;;;9.40;66.10;;;;;;5088431;28;20406;-84
2021/03/14 02:05:46;;;;;;;9.75;4.70;;;9.40;66.10;;;;;;5087900;28;20024;-82
2021/03/14 02:08:13;;;;;;;10.43;4.18;;;9.40;66.10;;;;;;5070731;28;20126;-83
2021/03/14 02:10:39;;;;;;;13.60;5.32;;;9.40;66.10;;;;;;5089543;28;20051;-83
2021/03/14 02:13:40;;;;;;;13.23;5.85;;;9.40;66.10;;;;;;5087403;28;20122;-82
2021/03/14 02:16:13;;;;;;;14.38;5.63;;;9.40;66.10;;;;;;5052437;28;20049;-79
2021/03/14 02:18:44;;;;;;;11.43;4.88;;;9.40;66.10;;;;;;5067265;28;20166;-77
2021/03/14 02:21:11;;;;;;;9.68;4.50;;;9.40;66.10;;;;;;5084047;28;20041;-79
2021/03/14 02:23:59;;;;;;;15.50;4.45;;;9.40;66.10;;;;;;5083893;28;20036;-82
2021/03/14 02:26:28;;;;;;;15.85;4.82;;;9.30;65.90;;;;;;5086296;28;20111;-82
2021/03/14 02:28:55;;;;;;;9.38;3.70;;;9.30;65.90;;;;;;5086924;28;20470;-81
2021/03/14 02:31:27;;;;;;;13.98;5.32;;;9.30;65.90;;;;;;5066872;28;20033;-79
2021/03/14 02:34:02;;;;;;;12.00;4.35;;;9.30;66.00;;;;;;5084719;28;20025;-82
2021/03/14 02:36:33;;;;;;;8.38;3.60;;;9.30;65.90;;;;;;5068233;28;20494;-80
2021/03/14 02:39:00;;;;;;;14.85;4.40;;;9.30;66.00;;;;;;5068284;28;20039;-77
2021/03/14 02:41:26;;;;;;;12.27;5.07;;;9.30;65.90;;;;;;5051366;28;20033;-83
2021/03/14 02:43:53;;;;;;;16.95;4.55;;;9.30;65.90;;;;;;5052464;28;20040;-84
2021/03/14 02:46:20;;;;;;;10.93;5.35;;;9.30;66.00;;;;;;5069836;28;20021;-81
2021/03/14 02:48:46;;;;;;;13.65;4.47;;;9.30;66.00;;;;;;5071637;28;20028;-78
2021/03/14 02:51:13;;;;;;;13.73;4.50;;;9.30;66.00;;;;;;5071199;28;20028;-77
2021/03/14 02:53:40;;;;;;;11.75;4.88;;;9.30;66.00;;;;;;5087758;28;20039;-81
2021/03/14 02:56:07;;;;;;;12.15;4.07;;;9.30;66.00;;;;;;5087696;28;20541;-77
2021/03/14 02:58:37;;;;;;;14.00;4.57;;;9.30;66.00;;;;;;5072068;28;20086;-82
2021/03/14 03:01:06;;;;;;;15.98;5.55;;;9.30;66.00;;;;;;5072201;28;20459;-81
2021/03/14 03:03:33;;;;;;;10.93;4.13;;;9.30;66.00;;;;;;5071272;28;20029;-80
2021/03/14 03:06:00;;;;;;;16.05;5.00;;;9.30;66.00;;;;;;5069612;28;20108;-80
2021/03/14 03:08:28;;;;;;;15.43;4.85;;;9.30;66.00;;;;;;5086993;28;20039;-76
2021/03/14 03:10:56;;;;;;;15.75;4.28;;;9.30;66.00;;;;;;5053922;28;20068;-79
2021/03/14 03:13:23;;;;;;;12.55;3.65;;;9.20;65.70;;;;;;5070584;28;20032;-79
2021/03/14 03:15:50;;;;;;;15.63;5.05;;;9.30;66.00;;;;;;5086787;28;20050;-77
2021/03/14 03:18:19;;;;;;;15.25;4.70;;;9.20;65.80;;;;;;5071461;28;20194;-77
2021/03/14 03:20:45;;;;;;;10.95;4.35;;;9.20;65.80;;;;;;5069987;28;20069;-79
2021/03/14 03:23:13;;;;;;;12.25;3.97;;;9.20;65.80;;;;;;5086016;28;20048;-81
2021/03/14 03:25:39;;;;;;;14.52;4.25;;;9.20;65.80;;;;;;5053560;28;20025;-80
2021/03/14 03:28:06;;;;;;;12.32;4.07;;;9.20;65.90;;;;;;5071242;28;20032;-79
2021/03/14 03:30:32;;;;;;;12.07;3.42;;;9.10;65.70;;;;;;5086523;28;20451;-78
2021/03/14 03:32:58;;;;;;;14.38;4.50;;;9.10;65.70;;;;;;5086850;28;20036;-78
2021/03/14 03:35:25;;;;;;;14.38;4.30;;;9.10;65.70;;;;;;5071053;28;20028;-80
2021/03/14 03:37:52;;;;;;;14.48;4.88;;;9.20;65.90;;;;;;5068012;28;20132;-77
2021/03/14 03:40:22;;;;;;;12.10;4.75;;;9.10;65.70;;;;;;5069744;28;20070;-80
2021/03/14 03:42:57;;;;;;;10.95;3.95;;;9.10;65.70;;;;;;5069341;28;20127;-78
2021/03/14 03:45:24;;;;;;;13.57;4.07;;;9.10;65.70;;;;;;5069522;28;20440;-79
2021/03/14 03:47:51;;;;;;;12.77;5.13;;;9.10;65.80;;;;;;5069134;28;20039;-77
2021/03/14 03:50:18;;;;;;;10.02;4.53;;;9.10;65.80;;;;;;5071393;28;20058;-80
2021/03/14 03:52:46;;;;;;;9.98;3.85;;;9.10;65.80;;;;;;5069673;28;20028;-83
2021/03/14 03:55:14;;;;;;;12.20;3.83;;;9.10;65.80;;;;;;5086553;28;20479;-80
2021/03/14 03:57:41;;;;;;;13.57;5.05;;;9.10;65.80;;;;;;5069311;28;20184;-82
2021/03/14 04:00:11;;;;;;;14.13;4.20;;;9.10;65.80;;;;;;5053118;28;20032;-83
2021/03/14 04:02:38;;;;;;;11.30;4.40;;;9.10;65.80;;;;;;5053266;28;20036;-81
2021/03/14 04:05:09;;;;;;;14.55;4.28;;;9.00;65.70;;;;;;5053173;28;20100;-80
2021/03/14 04:07:38;;;;;;;6.90;3.47;;;9.10;65.80;;;;;;5070998;28;20051;-80
2021/03/14 04:10:08;;;;;;;13.18;3.88;;;9.00;65.70;;;;;;5071022;28;20160;-83
2021/03/14 04:12:35;;;;;;;11.57;3.83;;;9.00;65.70;;;;;;5071195;28;20032;-82
2021/03/14 04:15:03;;;;;;;12.73;3.88;;;9.00;65.70;;;;;;5069320;28;20495;-81
2021/03/14 04:17:29;;;;;;;15.57;4.00;;;9.00;65.70;;;;;;5086169;28;20032;-79
2021/03/14 04:19:58;;;;;;;8.07;3.78;;;9.00;65.70;;;;;;5088790;28;20024;-80
2021/03/14 04:22:25;;;;;;;11.05;3.25;;;9.00;65.70;;;;;;5088598;28;20120;-80
2021/03/14 04:24:51;;;;;;;10.63;3.88;;;9.00;65.70;;;;;;5088897;28;20111;-80
2021/03/14 04:27:19;;;;;;;12.52;3.95;;;9.00;65.70;;;;;;5090339;28;20212;-78
2021/03/14 04:29:45;;;;;;;13.55;4.75;;;9.00;65.70;;;;;;5088631;28;20035;-79
2021/03/14 04:32:12;;;;;;;11.63;3.80;;;9.00;65.70;;;;;;5089022;28;20082;-80
2021/03/14 04:34:39;;;;;;;10.05;4.47;;;9.00;65.70;;;;;;5071312;28;20098;-80
2021/03/14 04:37:06;;;;;;;14.52;3.70;;;9.00;65.80;;;;;;5089358;28;20078;-79
2021/03/14 04:39:32;;;;;;;11.70;3.92;;;9.00;65.80;;;;;;5089019;28;20085;-81
2021/03/14 04:42:00;;;;;;;12.90;4.22;;;9.00;65.80;;;;;;5088852;28;20405;-78
2021/03/14 04:44:27;;;;;;;16.48;4.13;;;9.00;65.80;;;;;;5090607;28;20020;-76
2021/03/14 04:46:53;;;;;;;16.35;5.13;;;8.90;65.70;;;;;;5088429;28;20455;-79
2021/03/14 04:49:19;;;;;;;9.52;3.50;;;8.90;65.70;;;;;;5088888;28;20435;-79
2021/03/14 04:51:46;;;;;;;10.07;3.80;;;8.90;65.70;;;;;;5088579;28;20063;-81
2021/03/14 04:54:14;;;;;;;9.85;4.05;;;8.90;65.70;;;;;;5088492;28;20031;-80
2021/03/14 04:56:41;;;;;;;14.95;3.92;;;8.90;65.70;;;;;;5087819;28;20056;-81
2021/03/14 04:59:13;;;;;;;16.05;4.00;;;8.90;66.30;;;;;;5088722;28;20047;-80
2021/03/14 05:01:42;;;;;;;9.23;4.15;;;8.90;65.80;;;;;;5088241;28;20506;-79
2021/03/14 05:04:11;;;;;;;14.73;4.90;;;8.90;65.70;;;;;;5071735;28;20039;-80
2021/03/14 05:06:40;;;;;;;10.63;3.72;;;8.90;65.70;;;;;;5089527;28;20028;-82
2021/03/14 05:09:07;;;;;;;13.82;4.05;;;8.90;65.80;;;;;;5088659;28;20074;-80
2021/03/14 05:11:35;;;;;;;14.30;4.15;;;8.90;65.80;;;;;;5090188;28;20123;-82
2021/03/14 05:14:02;;;;;;;10.18;4.03;;;8.90;65.80;;;;;;5091529;28;20069;-81
2021/03/14 05:16:28;;;;;;;15.43;5.22;;;8.90;65.80;;;;;;5091979;28;20478;-82
2021/03/14 05:18:55;;;;;;;8.27;3.80;;;8.90;65.80;;;;;;5092420;28;20070;-83
2021/03/14 05:21:22;;;;;;;11.27;4.25;;;8.90;65.80;;;;;;5092050;28;20024;-81
2021/03/14 05:23:49;;;;;;;12.57;4.60;;;8.90;65.80;;;;;;5110688;28;20032;-79
2021/03/14 05:26:15;;;;;;;12.55;4.80;;;8.90;65.80;;;;;;5108982;28;20504;-81
2021/03/14 05:28:42;;;;;;;10.63;4.22;;;8.80;65.70;;;;;;5108825;28;20143;-84
2021/03/14 05:31:31;;;;;;;11.93;3.72;;;8.80;65.70;;;;;;5110149;28;20035;-85
2021/03/14 05:33:58;;;;;;;9.07;3.45;;;8.80;65.80;;;;;;5092184;28;20046;-85
2021/03/14 05:36:25;;;;;;;11.07;4.20;;;8.80;65.70;;;;;;5110838;27;20031;-84
2021/03/14 05:38:52;;;;;;;13.00;4.57;;;8.80;65.80;;;;;;5109091;28;20581;-82
2021/03/14 05:41:18;;;;;;;12.68;4.13;;;8.80;65.80;;;;;;5109180;28;20172;-83
2021/03/14 05:43:46;;;;;;;12.77;4.38;;;8.80;65.80;;;;;;5111406;28;20054;-87
2021/03/14 05:46:12;;;;;;;16.45;3.90;;;8.80;65.90;;;;;;5109649;28;20051;-85
2021/03/14 05:48:38;;;;;;;12.60;4.80;;;8.80;65.90;;;;;;5079868;28;20028;-86
2021/03/14 05:51:07;;;;;;;12.52;5.18;;;8.80;65.90;;;;;;5048796;28;20545;-86
2021/03/14 05:53:37;;;;;;;10.80;5.20;;;8.80;65.90;;;;;;5065866;28;20040;-84
2021/03/14 05:56:05;;;;;;;9.45;3.42;;;8.80;66.00;;;;;;5065988;28;20059;-85
2021/03/14 05:58:32;;;;;;;15.73;4.25;;;8.80;66.00;;;;;;5066019;28;20521;-82
2021/03/14 06:00:59;;;;;;;14.45;4.22;;;8.70;65.80;;;;;;5051236;28;20024;-81
2021/03/14 06:03:25;;;;;;;10.02;3.67;;;8.80;66.00;;;;;;5077821;28;20424;-83
2021/03/14 06:05:52;;;;;;;12.13;3.83;;;8.70;65.80;;;;;;5088966;28;20107;-80
2021/03/14 06:08:18;;;;;;;12.07;4.97;;;8.70;65.90;;;;;;5086647;28;20502;-80
2021/03/14 06:10:44;;;;;;;11.07;4.32;;;8.70;65.90;;;;;;5088571;28;20026;-79
2021/03/14 06:13:10;;;;;;;7.38;3.55;;;8.80;66.10;;;;;;5086382;28;20295;-80
2021/03/14 06:15:36;;;;;;;9.02;3.97;;;8.70;65.90;;;;;;5069721;28;20061;-75
2021/03/14 06:18:03;;;;;;;15.65;4.32;;;8.70;65.90;;;;;;5087533;28;20040;-80
2021/03/14 06:20:33;;;;;;;12.52;4.57;;;8.70;65.90;;;;;;5088629;28;20028;-80
2021/03/14 06:23:16;;;;;;;16.75;5.38;;;8.70;66.00;;;;;;5078818;28;20509;-81
2021/03/14 06:25:47;;;;;;;13.20;4.20;;;8.70;66.00;;;;;;5063546;28;21012;-80
2021/03/14 06:28:14;;;;;;;14.90;4.25;;;8.70;66.50;;;;;;5073136;28;20024;-80
2021/03/14 06:30:42;;;;;;;11.27;4.20;;;8.70;66.00;;;;;;5070190;28;20439;-80
2021/03/14 06:33:13;;;;;;;11.95;4.35;;;8.70;66.00;;;;;;5067229;28;20119;-77
2021/03/14 06:35:48;;;;;;;13.52;4.75;;;8.70;66.00;;;;;;5066270;28;20140;-80
2021/03/14 06:38:27;;;;;;;12.18;4.90;;;8.70;66.00;;;;;;5073262;28;20055;-80
2021/03/14 06:41:11;;;;;;;11.35;4.30;;;8.70;66.00;;;;;;5085724;28;20057;-81
2021/03/14 06:43:40;;;;;;;10.52;4.20;;;8.70;66.10;;;;;;5086731;28;20028;-80
2021/03/14 06:46:22;;;;;;;16.60;5.38;;;8.70;66.00;;;;;;5086133;28;20463;-78
2021/03/14 06:49:16;;;;;;;20.52;4.45;;;8.70;66.10;;;;;;5087416;28;20058;-88
2021/03/14 06:51:50;;;;;;;13.00;5.38;;;8.80;66.40;;;;;;5088015;28;20129;-81
2021/03/14 06:54:25;;;;;;;11.65;3.78;;;8.80;66.40;;;;;;5073146;28;20043;-78
2021/03/14 06:57:12;;;;;;;18.42;4.53;;;8.80;66.50;;;;;;5070495;28;20050;-81
2021/03/14 06:59:39;;;;;;;13.60;4.18;;;8.90;66.70;;;;;;5087244;28;20032;-79
2021/03/14 07:02:07;;;;;;;11.05;3.85;;;8.90;66.80;;;;;;5070288;28;20119;-86
2021/03/14 07:04:37;;;;;;;15.70;5.40;;;8.90;67.10;;;;;;5087440;28;20036;-87
2021/03/14 07:07:03;;;;;;;12.57;4.63;;;9.00;67.40;;;;;;5070142;28;20035;-90
2021/03/14 07:09:30;;;;;;;14.68;5.03;;;9.10;67.50;;;;;;5083240;28;20031;-81
2021/03/14 07:11:56;;;;;;;12.52;4.50;;;9.10;67.50;;;;;;5078953;28;20030;-87
2021/03/14 07:14:25;;;;;;;13.40;4.03;;;9.20;67.60;;;;;;5087845;28;20104;-80
2021/03/14 07:16:58;;;;;;;12.55;4.10;;;9.20;67.60;;;;;;5092008;28;20053;-78
2021/03/14 07:19:28;;;;;;;11.40;4.40;;;9.20;67.60;;;;;;5091483;28;20030;-87
2021/03/14 07:22:02;;;;;;;14.57;4.95;;;9.30;68.30;;;;;;5071702;28;20032;-88
2021/03/14 07:24:31;;;;;;;9.80;4.00;;;9.30;67.80;;;;;;5065800;28;20090;-80
2021/03/14 07:26:57;;;;;;;13.30;4.10;;;9.30;67.70;;;;;;5083143;28;20032;-81
2021/03/14 07:29:27;;;;;;;15.77;4.38;;;9.30;67.70;;;;;;5082927;28;20455;-89
2021/03/14 07:31:54;;;;;;;13.07;4.15;;;9.30;67.70;;;;;;5086574;28;20564;-86
2021/03/14 07:34:21;;;;;;;11.25;3.92;;;9.40;67.90;;;;;;5049409;28;20519;-81
2021/03/14 07:36:48;;;;;;;11.88;4.13;;;9.40;67.80;;;;;;5065400;28;20044;-85
2021/03/14 07:39:15;;;;;;;9.07;3.78;;;9.40;67.80;;;;;;5082421;28;20036;-85
2021/03/14 07:41:41;;;;;;;10.88;3.72;;;9.50;68.00;;;;;;5088951;28;20498;-84
2021/03/14 07:44:10;;;;;;;12.80;4.07;;;9.50;67.90;;;;;;5092820;28;20032;-87
2021/03/14 07:46:41;;;;;;;17.08;4.93;;;9.50;67.80;;;;;;5095325;28;20095;-83
2021/03/14 07:49:10;;;;;;;8.32;4.25;;;9.60;68.00;;;;;;5086098;28;20062;-82
2021/03/14 07:51:38;;;;;;;17.08;5.00;;;9.70;68.00;;;;;;5086198;28;20039;-79
2021/03/14 07:54:08;;;;;;;10.63;4.28;;;9.80;68.10;;;;;;5065881;28;20043;-85
2021/03/14 07:56:37;;;;;;;16.05;5.18;;;9.90;68.20;;;;;;5066190;28;20202;-85
2021/03/14 07:59:05;;;;;;;11.25;4.13;;;9.90;68.00;;;;;;5085727;28;20080;-81
2021/03/14 08:01:34;;;;;;;14.95;4.63;;;10.00;68.00;;;;;;5068927;28;20028;-84
2021/03/14 08:04:00;;;;;;;11.02;4.32;;;10.00;67.80;;;;;;5083799;28;20028;-79
2021/03/14 08:06:45;;;;;;;19.05;4.28;;;10.10;67.90;;;;;;5068754;28;20028;-80
2021/03/14 08:09:31;;;;;;;12.98;5.15;;;10.10;67.90;;;;;;5087127;28;20054;-84
2021/03/14 08:12:40;;;;;;;12.13;4.35;;;10.10;67.80;;;;;;5068417;28;20434;-77
2021/03/14 08:15:30;;;;;;;9.80;3.92;;;10.10;67.80;;;;;;5020756;28;20028;-82
2021/03/14 08:17:58;;;;;;;11.65;4.78;;;10.20;67.90;;;;;;5064927;28;20044;-80
2021/03/14 08:20:38;;;;;;;9.90;4.60;;;10.20;67.80;;;;;;5064713;28;20031;-84
2021/03/14 08:23:05;;;;;;;16.80;4.90;;;10.20;67.80;;;;;;5080430;28;20590;-89
2021/03/14 08:25:42;;;;;;;9.60;4.25;;;10.20;67.80;;;;;;5058395;28;20032;-86
2021/03/14 08:28:46;;;;;;;10.32;4.75;;;10.30;67.90;;;;;;5078660;28;20025;-84
2021/03/14 08:31:35;;;;;;;13.80;5.05;;;10.20;67.70;;;;;;5049124;28;20288;-78
2021/03/14 08:34:01;;;;;;;10.30;4.25;;;10.30;67.80;;;;;;5083234;28;20207;-81
2021/03/14 08:36:34;;;;;;;17.05;5.07;;;10.30;67.80;;;;;;5068672;28;20490;-87
2021/03/14 08:39:07;;;;;;;11.00;4.43;;;10.30;67.80;;;;;;5068219;28;20039;-84
2021/03/14 08:41:48;;;;;;;13.60;4.38;;;10.30;67.80;;;;;;5067301;28;20169;-90
2021/03/14 08:44:40;;;;;;;15.63;5.35;;;10.40;67.90;;;;;;5085820;28;20063;-81
2021/03/14 08:47:16;;;;;;;13.85;4.00;;;10.40;67.90;;;;;;5069233;28;20028;-82
2021/03/14 08:49:54;;;;;;;11.27;4.80;;;10.40;67.70;;;;;;5064282;28;20124;-80
2021/03/14 08:52:22;;;;;;;10.00;3.70;;;10.50;67.80;;;;;;5057670;28;20099;-81
2021/03/14 08:55:00;;;;;;;11.40;4.30;;;10.50;67.70;;;;;;5070619;28;20557;-85
2021/03/14 08:57:29;;;;;;;16.23;4.50;;;10.60;67.90;;;;;;5080772;28;20091;-80
2021/03/14 09:00:00;;;;;;;13.88;4.53;;;10.60;67.80;;;;;;5066120;28;20364;-83
2021/03/14 09:02:28;;;;;;;13.52;4.88;;;10.80;68.30;;;;;;5073638;28;20061;-82
2021/03/14 09:05:19;;;;;;;11.43;5.18;;;10.80;68.30;;;;;;5059622;28;20052;-82
2021/03/14 09:08:01;;;;;;;13.15;3.85;;;11.00;68.60;;;;;;5075563;28;20067;-84
2021/03/14 09:10:36;;;;;;;11.25;4.20;;;11.10;68.50;;;;;;5084295;28;20024;-82
2021/03/14 09:13:29;;;;;;;11.73;3.72;;;11.10;68.30;;;;;;5065143;28;20029;-85
2021/03/14 09:16:41;;;;;;;12.48;4.82;;;11.20;68.30;;;;;;5084076;28;20055;-93
2021/03/14 09:19:07;;;;;;;14.02;4.03;;;11.20;68.20;;;;;;5049511;28;20388;-87
2021/03/14 09:22:05;;;;;;;12.80;4.18;;;11.30;68.20;;;;;;5047758;28;20246;-83
2021/03/14 09:24:56;;;;;;;8.57;3.90;;;11.30;68.20;;;;;;5064468;28;20048;-83
2021/03/14 09:27:26;;;;;;;14.57;4.45;;;11.30;68.20;;;;;;5048739;28;20127;-81
2021/03/14 09:29:54;;;;;;;13.27;4.85;;;11.40;68.20;;;;;;5068899;28;20324;-88
2021/03/14 09:32:29;;;;;;;11.55;4.30;;;11.40;68.20;;;;;;5089109;28;20085;-85
2021/03/14 09:35:30;;;;;;;9.05;4.20;;;11.50;68.40;;;;;;5070777;28;20068;-84
2021/03/14 09:38:03;;;;;;;26.35;12.13;;;11.50;68.50;;;;;;5038869;28;20042;-88
2021/03/14 09:40:43;;;;;;;28.55;13.00;;;11.60;68.90;;;;;;5073010;28;20039;-87
2021/03/14 09:43:20;;;;;;;23.02;10.60;;;11.90;69.80;;;;;;5069835;28;20035;-81
2021/03/14 09:46:06;;;;;;;23.90;10.50;;;12.10;70.00;;;;;;5077617;28;20062;-80
2021/03/14 09:48:37;;;;;;;26.45;11.23;;;12.30;70.00;;;;;;5078725;28;20586;-81
2021/03/14 09:51:07;;;;;;;19.00;9.50;;;12.40;70.40;;;;;;5074807;28;20255;-79
2021/03/14 09:53:37;;;;;;;21.17;9.52;;;12.70;71.10;;;;;;5087090;28;20059;-79
2021/03/14 09:56:17;;;;;;;25.75;9.40;;;12.90;71.30;;;;;;5086995;28;20614;-79
2021/03/14 09:59:03;;;;;;;19.10;8.60;;;13.20;71.50;;;;;;5087330;28;20422;-80
2021/03/14 10:01:36;;;;;;;20.80;9.13;;;13.40;71.50;;;;;;5071388;28;20023;-81
2021/03/14 10:04:03;;;;;;;19.85;8.50;;;13.60;71.60;;;;;;5087112;28;20550;-81
2021/03/14 10:06:48;;;;;;;21.05;7.93;;;13.70;71.60;;;;;;5074256;28;20029;-82
2021/03/14 10:09:26;;;;;;;13.73;7.55;;;13.90;71.80;;;;;;5087513;28;20089;-82
2021/03/14 10:12:06;;;;;;;18.52;7.75;;;14.10;72.10;;;;;;5072474;28;20346;-80
2021/03/14 10:14:36;;;;;;;22.88;7.43;;;14.20;71.90;;;;;;5071386;28;20157;-79
2021/03/14 10:17:03;;;;;;;19.40;8.32;;;14.30;71.90;;;;;;5070896;28;20066;-80
2021/03/14 10:19:29;;;;;;;15.95;7.85;;;14.40;71.90;;;;;;5072065;28;20048;-84
2021/03/14 10:21:57;;;;;;;11.65;7.03;;;14.40;71.80;;;;;;5050948;28;20438;-82
2021/03/14 10:24:45;;;;;;;15.18;7.22;;;14.50;71.90;;;;;;5072132;28;20028;-83
2021/03/14 10:27:23;;;;;;;14.32;6.15;;;14.50;71.80;;;;;;5085048;28;20430;-82
2021/03/14 10:30:05;;;;;;;11.68;6.25;;;14.60;71.90;;;;;;5053418;28;20024;-82
2021/03/14 10:32:48;;;;;;;17.88;5.95;;;14.70;71.90;;;;;;5073260;28;20032;-82
2021/03/14 10:35:24;;;;;;;11.50;5.95;;;14.70;71.90;;;;;;5087567;28;20553;-80
2021/03/14 10:37:57;;;;;;;17.02;4.93;;;14.90;72.10;;;;;;5070447;28;20071;-82
2021/03/14 10:40:27;;;;;;;13.65;5.85;;;15.00;72.00;;;;;;5071038;28;20389;-80
2021/03/14 10:43:21;;;;;;;12.45;5.88;;;15.20;72.10;;;;;;5070321;28;20040;-80
2021/03/14 10:45:54;;;;;;;15.38;5.82;;;15.30;71.70;;;;;;5086777;28;20455;-78
2021/03/14 10:48:29;;;;;;;15.95;6.55;;;15.40;71.70;;;;;;5066815;28;20032;-81
2021/03/14 10:51:00;;;;;;;12.05;5.20;;;15.60;71.70;;;;;;5067276;28;20048;-79
2021/03/14 10:53:27;;;;;;;11.15;5.20;;;15.60;71.40;;;;;;5079424;28;20133;-78
2021/03/14 10:56:09;;;;;;;7.28;4.57;;;15.70;71.20;;;;;;5071975;28;20044;-79
2021/03/14 10:58:42;;;;;;;9.57;4.63;;;15.80;70.90;;;;;;5087429;28;20044;-84
2021/03/14 11:01:48;;;;;;;10.02;4.07;;;15.90;70.80;;;;;;5045610;28;20032;-84
2021/03/14 11:04:24;;;;;;;8.35;4.38;;;15.90;70.60;;;;;;5027993;28;20040;-80
2021/03/14 11:06:57;;;;;;;14.40;4.80;;;15.90;70.30;;;;;;5043216;28;20055;-84
2021/03/14 11:09:27;;;;;;;10.00;4.80;;;16.00;70.20;;;;;;5068975;28;20333;-86
2021/03/14 11:11:55;;;;;;;15.70;5.28;;;16.00;70.10;;;;;;5050519;28;20032;-82
2021/03/14 11:14:44;;;;;;;11.68;5.28;;;15.90;69.80;;;;;;5086901;28;20024;-85
2021/03/14 11:17:22;;;;;;;13.30;4.63;;;15.90;69.60;;;;;;5087915;28;20051;-81
2021/03/14 11:20:07;;;;;;;8.40;3.92;;;15.90;69.50;;;;;;5072291;28;20080;-85
2021/03/14 11:22:40;;;;;;;12.35;3.45;;;15.80;69.20;;;;;;5086836;28;20047;-80
2021/03/14 11:25:09;;;;;;;10.32;4.63;;;15.80;69.20;;;;;;5088541;28;20207;-81
2021/03/14 11:27:37;;;;;;;5.93;2.85;;;15.70;69.00;;;;;;5071055;28;20100;-87
2021/03/14 11:30:05;;;;;;;9.93;3.85;;;15.70;69.10;;;;;;5071285;28;20032;-92
2021/03/14 11:32:33;;;;;;;7.57;3.40;;;15.60;68.90;;;;;;5072761;28;20044;-83
2021/03/14 11:35:22;;;;;;;11.05;3.58;;;15.60;68.80;;;;;;5061619;28;20041;-82
2021/03/14 11:38:24;;;;;;;8.13;3.55;;;15.60;68.70;;;;;;5065933;28;20043;-91
2021/03/14 11:41:07;;;;;;;6.80;3.72;;;15.70;68.80;;;;;;5073011;28;20036;-82
2021/03/14 11:44:02;;;;;;;9.38;3.55;;;15.70;68.70;;;;;;5030725;28;20364;-83
2021/03/14 11:46:29;;;;;;;5.47;3.33;;;15.80;68.70;;;;;;5067034;28;20476;-81
2021/03/14 11:49:05;;;;;;;7.38;3.72;;;15.90;68.60;;;;;;5078226;28;20035;-81
2021/03/14 11:51:31;;;;;;;9.30;3.50;;;15.90;68.40;;;;;;5088817;28;20024;-84
2021/03/14 11:54:07;;;;;;;10.45;3.35;;;16.00;68.40;;;;;;5069503;28;20048;-84
2021/03/14 11:56:34;;;;;;;5.40;3.42;;;16.00;68.20;;;;;;5079541;28;20059;-86
2021/03/14 11:59:01;;;;;;;6.93;3.72;;;16.10;68.20;;;;;;5093808;28;20499;-86
2021/03/14 12:01:39;;;;;;;8.90;3.20;;;16.20;68.20;;;;;;5070392;28;20514;-83
2021/03/14 12:04:07;;;;;;;9.23;3.67;;;16.20;68.00;;;;;;5085860;28;20071;-79
2021/03/14 12:06:33;;;;;;;11.63;3.28;;;16.20;67.80;;;;;;5068539;28;20478;-80
2021/03/14 12:09:10;;;;;;;9.90;3.28;;;16.30;67.80;;;;;;5064968;28;20143;-81
2021/03/14 12:11:42;;;;;;;10.18;3.53;;;16.30;67.80;;;;;;5048717;28;20028;-81
2021/03/14 12:14:10;;;;;;;6.28;3.00;;;16.30;67.70;;;;;;5064796;28;20074;-78
2021/03/14 12:17:03;;;;;;;7.57;3.03;;;16.40;67.70;;;;;;5064866;28;20541;-79
2021/03/14 12:20:01;;;;;;;10.32;3.90;;;16.40;67.60;;;;;;5073526;28;20063;-80
2021/03/14 12:22:36;;;;;;;5.97;3.22;;;16.50;67.60;;;;;;5069436;28;20464;-81
2021/03/14 12:25:05;;;;;;;8.20;2.72;;;16.50;67.50;;;;;;5085930;28;20107;-81
2021/03/14 12:27:32;;;;;;;10.27;3.85;;;16.50;67.30;;;;;;5084271;28;20025;-82
2021/03/14 12:29:59;;;;;;;7.85;3.22;;;16.60;67.30;;;;;;5064219;28;20048;-81
2021/03/14 12:32:25;;;;;;;8.10;3.58;;;16.60;67.10;;;;;;5069462;28;20043;-82
2021/03/14 12:34:53;;;;;;;6.75;3.17;;;16.60;67.10;;;;;;5078456;28;20031;-80
2021/03/14 12:37:25;;;;;;;9.38;3.65;;;16.60;67.10;;;;;;5095239;28;20032;-82
2021/03/14 12:39:58;;;;;;;7.93;3.65;;;16.70;67.20;;;;;;5070143;28;20115;-80
2021/03/14 12:42:25;;;;;;;12.63;3.35;;;16.70;67.10;;;;;;5085317;28;20028;-78
2021/03/14 12:44:58;;;;;;;13.00;3.83;;;16.80;67.10;;;;;;5085151;28;20156;-80
2021/03/14 12:47:26;;;;;;;8.70;3.30;;;16.80;67.00;;;;;;5085090;28;20048;-79
2021/03/14 12:49:52;;;;;;;10.20;3.45;;;16.90;67.00;;;;;;5065163;28;20079;-82
2021/03/14 12:52:19;;;;;;;9.93;4.28;;;16.90;66.80;;;;;;5083127;28;20024;-79
2021/03/14 12:54:45;;;;;;;7.13;2.95;;;16.90;66.60;;;;;;5068391;28;20020;-79
2021/03/14 12:57:11;;;;;;;14.10;3.40;;;16.90;66.60;;;;;;5068058;28;20055;-81
2021/03/14 12:59:37;;;;;;;10.82;3.70;;;16.80;66.40;;;;;;5064952;28;20349;-82
2021/03/14 13:02:03;;;;;;;11.00;4.00;;;16.80;66.50;;;;;;5064562;28;20025;-83
2021/03/14 13:04:29;;;;;;;9.82;4.07;;;16.80;66.50;;;;;;5077292;28;20143;-79
2021/03/14 13:06:56;;;;;;;12.93;3.75;;;16.80;66.50;;;;;;5098178;28;20938;-80